Time;durP1;ratioP1;P1;durP2;ratioP2;P2;SDS_P1;SDS_P2;PMS_P1;PMS_P2;Temp;Humidity;BMP_temperature;BMP_pressure;BME280_temperature;BME280_humidity;BME280_pressure;Samples;Min_cycle;Max_cycle;Signal;HPM_P1;HPM_P2
2024/04/22 00:00:30;;;;;;;5.27;2.17;;;;;;;;;;5422202;26;19932;-61
2024/04/22 00:02:55;;;;;;;6.28;2.60;;;;;;;;;;5432855;26;20956;-61
2024/04/22 00:05:21;;;;;;;5.30;2.38;;;;;;;;;;5467570;26;20045;-60
2024/04/22 00:07:47;;;;;;;5.28;2.30;;;;;;;;;;5456556;26;19992;-61
2024/04/22 00:10:12;;;;;;;7.15;2.72;;;;;;;;;;5422093;26;20027;-60
2024/04/22 00:12:38;;;;;;;7.00;2.65;;;;;;;;;;5448239;26;20127;-60
2024/04/22 00:15:04;;;;;;;5.70;2.33;;;;;;;;;;5443150;26;20000;-61
2024/04/22 00:17:29;;;;;;;6.07;2.60;;;;;;;;;;5415192;26;19999;-59
2024/04/22 00:19:55;;;;;;;6.97;2.53;;;;;;;;;;5415635;26;19999;-61
2024/04/22 00:22:20;;;;;;;6.15;2.92;;;;;;;;;;5415646;26;20407;-60
2024/04/22 00:24:46;;;;;;;7.25;2.40;;;;;;;;;;5415772;26;20397;-61
2024/04/22 00:27:11;;;;;;;5.35;2.45;;;;;;;;;;5414707;26;20320;-59
2024/04/22 00:29:37;;;;;;;5.45;2.30;;;;;;;;;;5421786;26;20367;-60
2024/04/22 00:32:02;;;;;;;6.95;2.60;;;;;;;;;;5451908;26;20453;-60
2024/04/22 00:34:28;;;;;;;5.38;2.50;;;;;;;;;;5431258;26;20444;-59
2024/04/22 00:36:54;;;;;;;6.07;2.83;;;;;;;;;;5428584;26;20008;-61
2024/04/22 00:39:19;;;;;;;6.18;2.35;;;;;;;;;;5416818;26;20437;-62
2024/04/22 00:41:45;;;;;;;5.22;2.40;;;;;;;;;;5424268;26;20064;-59
2024/04/22 00:44:10;;;;;;;4.82;2.15;;;;;;;;;;5415388;26;20006;-60
2024/04/22 00:46:36;;;;;;;5.97;2.50;;;;;;;;;;5414660;26;20011;-60
2024/04/22 00:49:02;;;;;;;5.85;2.58;;;;;;;;;;5414829;26;20000;-59
2024/04/22 00:51:27;;;;;;;5.97;2.67;;;;;;;;;;5419773;26;20050;-61
2024/04/22 00:53:53;;;;;;;7.18;2.85;;;;;;;;;;5425470;26;20000;-61
2024/04/22 00:56:18;;;;;;;6.07;2.65;;;;;;;;;;5418728;26;20011;-59
2024/04/22 00:58:46;;;;;;;6.40;3.03;;;;;;;;;;5452564;26;20006;-61
2024/04/22 01:01:12;;;;;;;6.93;2.75;;;;;;;;;;5445328;26;19999;-60
2024/04/22 01:03:38;;;;;;;7.40;2.13;;;;;;;;;;5459998;26;20013;-62
2024/04/22 01:06:04;;;;;;;6.55;2.67;;;;;;;;;;5457140;26;19995;-61
2024/04/22 01:08:29;;;;;;;5.93;2.83;;;;;;;;;;5432038;26;19995;-61
2024/04/22 01:10:55;;;;;;;10.15;3.55;;;;;;;;;;5456842;26;20006;-61
2024/04/22 01:13:20;;;;;;;6.35;2.78;;;;;;;;;;5432701;26;20002;-60
2024/04/22 01:15:46;;;;;;;5.72;2.95;;;;;;;;;;5452407;26;20071;-60
2024/04/22 01:18:18;;;;;;;5.75;2.53;;;;;;;;;;5415419;26;19995;-59
2024/04/22 01:20:44;;;;;;;7.78;2.83;;;;;;;;;;5412292;26;20011;-60
2024/04/22 01:23:09;;;;;;;6.10;2.90;;;;;;;;;;5414013;26;19996;-60
2024/04/22 01:25:37;;;;;;;6.60;2.85;;;;;;;;;;5414059;26;20410;-59
2024/04/22 01:28:04;;;;;;;9.88;3.05;;;;;;;;;;5424050;26;20458;-59
2024/04/22 01:30:30;;;;;;;7.57;3.13;;;;;;;;;;5450728;26;19995;-61
2024/04/22 01:32:55;;;;;;;6.43;2.92;;;;;;;;;;5424580;26;20001;-59
2024/04/22 01:35:21;;;;;;;6.78;3.15;;;;;;;;;;5438748;26;20060;-60
2024/04/22 01:37:46;;;;;;;7.30;3.28;;;;;;;;;;5417483;26;20014;-61
2024/04/22 01:40:12;;;;;;;8.68;2.97;;;;;;;;;;5414915;26;19988;-61
2024/04/22 01:42:38;;;;;;;7.60;3.38;;;;;;;;;;5437189;26;20010;-60
2024/04/22 01:45:04;;;;;;;8.00;3.10;;;;;;;;;;5449651;26;20009;-63
2024/04/22 01:47:29;;;;;;;7.10;3.10;;;;;;;;;;5420132;26;20003;-62
2024/04/22 01:49:55;;;;;;;7.85;3.13;;;;;;;;;;5414096;26;20065;-60
2024/04/22 01:52:20;;;;;;;6.65;3.05;;;;;;;;;;5414244;26;20003;-61
2024/04/22 01:54:46;;;;;;;7.50;3.10;;;;;;;;;;5414108;26;20007;-62
2024/04/22 01:57:12;;;;;;;7.50;3.20;;;;;;;;;;5420096;26;20082;-60
2024/04/22 01:59:37;;;;;;;6.25;3.00;;;;;;;;;;5414544;26;20086;-61
2024/04/22 02:02:03;;;;;;;6.63;2.97;;;;;;;;;;5413786;26;20003;-60
2024/04/22 02:04:29;;;;;;;6.20;2.83;;;;;;;;;;5414290;26;20000;-60
2024/04/22 02:06:54;;;;;;;6.97;2.88;;;;;;;;;;5413870;26;20072;-62
2024/04/22 02:09:20;;;;;;;6.10;2.80;;;;;;;;;;5414321;26;19992;-60
2024/04/22 02:11:45;;;;;;;6.18;2.83;;;;;;;;;;5413688;26;20011;-61
2024/04/22 02:14:11;;;;;;;6.97;3.10;;;;;;;;;;5433351;26;20048;-61
2024/04/22 02:16:36;;;;;;;6.75;2.90;;;;;;;;;;5450146;26;19999;-60
2024/04/22 02:19:02;;;;;;;7.03;3.42;;;;;;;;;;5452316;26;20006;-62
2024/04/22 02:21:28;;;;;;;6.95;2.67;;;;;;;;;;5427148;26;20072;-61
2024/04/22 02:23:54;;;;;;;7.03;3.15;;;;;;;;;;5423557;26;20011;-60
2024/04/22 02:26:20;;;;;;;7.28;3.03;;;;;;;;;;5424067;26;19996;-61
2024/04/22 02:28:49;;;;;;;7.35;2.97;;;;;;;;;;5413274;26;20000;-61
2024/04/22 02:31:15;;;;;;;6.15;3.00;;;;;;;;;;5438537;26;20006;-60
2024/04/22 02:33:40;;;;;;;7.20;3.20;;;;;;;;;;5431000;26;20001;-60
2024/04/22 02:36:06;;;;;;;6.50;3.25;;;;;;;;;;5416548;26;19992;-60
2024/04/22 02:38:31;;;;;;;7.20;2.92;;;;;;;;;;5446774;26;20022;-60
2024/04/22 02:40:57;;;;;;;6.38;2.78;;;;;;;;;;5424658;26;20413;-60
2024/04/22 02:43:22;;;;;;;7.45;3.33;;;;;;;;;;5451824;26;20346;-60
2024/04/22 02:45:48;;;;;;;7.07;3.17;;;;;;;;;;5451866;26;20320;-60
2024/04/22 02:48:13;;;;;;;7.07;2.92;;;;;;;;;;5452168;26;20466;-60
2024/04/22 02:50:39;;;;;;;7.10;2.92;;;;;;;;;;5450779;26;20543;-60
2024/04/22 02:53:04;;;;;;;8.50;3.55;;;;;;;;;;5418827;26;20447;-62
2024/04/22 02:55:30;;;;;;;6.68;3.30;;;;;;;;;;5415625;26;20003;-60
2024/04/22 02:57:56;;;;;;;6.53;2.97;;;;;;;;;;5416529;26;20002;-60
2024/04/22 03:00:21;;;;;;;7.82;3.35;;;;;;;;;;5421102;26;20011;-61
2024/04/22 03:02:47;;;;;;;7.30;3.10;;;;;;;;;;5427526;26;20068;-60
2024/04/22 03:05:12;;;;;;;6.68;3.03;;;;;;;;;;5452411;26;20007;-60
2024/04/22 03:07:38;;;;;;;6.35;2.90;;;;;;;;;;5438657;26;20074;-62
2024/04/22 03:10:03;;;;;;;6.63;2.80;;;;;;;;;;5420607;26;20000;-62
2024/04/22 03:12:31;;;;;;;7.72;3.05;;;;;;;;;;5420622;26;20007;-60
2024/04/22 03:14:57;;;;;;;9.27;3.47;;;;;;;;;;5416051;26;20014;-59
2024/04/22 03:17:22;;;;;;;6.75;2.95;;;;;;;;;;5429121;26;20010;-60
2024/04/22 03:19:49;;;;;;;7.65;3.38;;;;;;;;;;5421545;26;20068;-60
2024/04/22 03:22:14;;;;;;;;;;;;;;;;;;5433413;26;20011;-61
2024/04/22 03:24:40;;;;;;;10.30;3.00;;;;;;;;;;5418407;26;19932;-59
2024/04/22 03:27:05;;;;;;;10.65;3.40;;;;;;;;;;5416008;26;20671;-62
2024/04/22 03:29:31;;;;;;;6.35;2.72;;;;;;;;;;5418904;26;19995;-62
2024/04/22 03:31:56;;;;;;;9.90;3.10;;;;;;;;;;5436643;26;20003;-61
2024/04/22 03:34:22;;;;;;;7.40;2.97;;;;;;;;;;5463704;26;19995;-61
2024/04/22 03:36:47;;;;;;;8.20;3.05;;;;;;;;;;5451438;26;20002;-61
2024/04/22 03:39:13;;;;;;;7.50;3.00;;;;;;;;;;5417710;26;20068;-61
2024/04/22 03:41:38;;;;;;;7.22;3.00;;;;;;;;;;5425826;26;20011;-60
2024/04/22 03:44:04;;;;;;;8.02;3.13;;;;;;;;;;5450199;26;20003;-62
2024/04/22 03:51:58;;;;;;;6.97;3.25;;;;;;;;;;5451543;26;20059;-61
2024/04/22 03:54:24;;;;;;;7.32;3.08;;;;;;;;;;5432902;26;20523;-61
2024/04/22 03:56:49;;;;;;;6.93;3.00;;;;;;;;;;5414981;26;20528;-60
2024/04/22 03:59:15;;;;;;;8.10;3.33;;;;;;;;;;5415383;26;19991;-61
2024/04/22 04:01:40;;;;;;;9.00;3.20;;;;;;;;;;5419646;26;20007;-62
2024/04/22 04:04:06;;;;;;;7.38;3.40;;;;;;;;;;5430886;26;20048;-61
2024/04/22 04:06:31;;;;;;;7.22;3.10;;;;;;;;;;5451744;26;20039;-60
2024/04/22 04:08:57;;;;;;;7.68;3.08;;;;;;;;;;5426627;26;20037;-62
2024/04/22 04:11:27;;;;;;;8.45;3.42;;;;;;;;;;5415855;26;19999;-61
2024/04/22 04:13:53;;;;;;;8.77;3.00;;;;;;;;;;5425834;26;19995;-66
2024/04/22 04:16:19;;;;;;;8.60;3.80;;;;;;;;;;5450979;26;20351;-60
2024/04/22 04:18:46;;;;;;;6.90;3.33;;;;;;;;;;5451692;26;19994;-62
2024/04/22 04:21:11;;;;;;;8.10;3.17;;;;;;;;;;5442788;26;20520;-61
2024/04/22 04:23:37;;;;;;;6.80;3.40;;;;;;;;;;5428367;26;20003;-61
2024/04/22 04:26:02;;;;;;;8.18;3.05;;;;;;;;;;5436436;26;20044;-62
2024/04/22 04:28:28;;;;;;;7.13;3.03;;;;;;;;;;5424480;26;20021;-60
2024/04/22 04:30:54;;;;;;;9.45;3.10;;;;;;;;;;5422141;26;20006;-60
2024/04/22 04:33:19;;;;;;;7.10;3.22;;;;;;;;;;5425575;26;19994;-61
2024/04/22 04:35:45;;;;;;;8.52;3.40;;;;;;;;;;5425786;26;20413;-62
2024/04/22 04:38:10;;;;;;;6.88;3.15;;;;;;;;;;5417529;26;20001;-61
2024/04/22 04:40:36;;;;;;;7.00;3.20;;;;;;;;;;5435072;26;20002;-60
2024/04/22 04:43:01;;;;;;;7.55;3.13;;;;;;;;;;5415532;26;19999;-61
2024/04/22 04:45:27;;;;;;;6.93;2.90;;;;;;;;;;5430499;26;19995;-60
2024/04/22 04:47:53;;;;;;;7.85;3.20;;;;;;;;;;5453081;26;20071;-61
2024/04/22 04:50:19;;;;;;;6.40;3.05;;;;;;;;;;5459140;26;20103;-60
2024/04/22 04:52:44;;;;;;;7.68;3.42;;;;;;;;;;5463798;26;20016;-61
2024/04/22 04:55:10;;;;;;;8.48;3.38;;;;;;;;;;5459479;26;20056;-60
2024/04/22 04:57:35;;;;;;;7.47;3.47;;;;;;;;;;5439848;26;20010;-60
2024/04/22 05:00:01;;;;;;;10.65;4.35;;;;;;;;;;5426469;26;19998;-61
2024/04/22 05:02:26;;;;;;;9.68;4.13;;;;;;;;;;5447112;26;19998;-61
2024/04/22 05:04:52;;;;;;;10.32;4.07;;;;;;;;;;5412875;26;19991;-60
2024/04/22 05:07:17;;;;;;;8.98;3.92;;;;;;;;;;5416765;26;20007;-61
2024/04/22 05:09:43;;;;;;;9.75;3.83;;;;;;;;;;5410165;26;20063;-59
2024/04/22 05:12:08;;;;;;;11.45;3.90;;;;;;;;;;5431201;26;19995;-60
2024/04/22 05:14:34;;;;;;;9.10;3.95;;;;;;;;;;5436683;26;20020;-61
2024/04/22 05:17:00;;;;;;;8.52;4.18;;;;;;;;;;5417934;26;20068;-61
2024/04/22 05:19:25;;;;;;;9.10;3.67;;;;;;;;;;5420581;26;19995;-61
2024/04/22 05:21:51;;;;;;;7.63;3.60;;;;;;;;;;5438891;26;20003;-61
2024/04/22 05:24:18;;;;;;;8.80;4.13;;;;;;;;;;5449416;26;20007;-60
2024/04/22 05:26:44;;;;;;;8.05;3.75;;;;;;;;;;5436337;26;20317;-60
2024/04/22 05:29:09;;;;;;;7.13;3.50;;;;;;;;;;5421273;26;20040;-60
2024/04/22 05:31:35;;;;;;;8.88;4.20;;;;;;;;;;5450032;26;20468;-60
2024/04/22 05:36:45;;;;;;;8.32;3.65;;;;;;;;;;5421833;26;20010;-61
2024/04/22 05:39:10;;;;;;;8.35;3.72;;;;;;;;;;5413879;26;20044;-61
2024/04/22 05:41:36;;;;;;;9.60;3.72;;;;;;;;;;5435725;26;20011;-61
2024/04/22 05:44:01;;;;;;;10.82;3.90;;;;;;;;;;5445759;26;20037;-60
2024/04/22 05:46:27;;;;;;;8.43;4.57;;;;;;;;;;5414407;26;19999;-61
2024/04/22 05:48:52;;;;;;;7.10;3.65;;;;;;;;;;5413967;26;20004;-61
2024/04/22 05:51:18;;;;;;;6.88;3.20;;;;;;;;;;5415108;26;20677;-59
2024/04/22 05:53:43;;;;;;;9.68;3.13;;;;;;;;;;5420257;26;20350;-59
2024/04/22 05:56:09;;;;;;;7.47;3.15;;;;;;;;;;5430610;26;20075;-62
2024/04/22 05:58:34;;;;;;;6.78;3.20;;;;;;;;;;5436158;26;20003;-61
2024/04/22 06:01:00;;;;;;;8.40;3.03;;;;;;;;;;5419827;26;20007;-65
2024/04/22 06:03:25;;;;;;;6.78;3.00;;;;;;;;;;5418289;26;20015;-61
2024/04/22 06:05:51;;;;;;;6.18;2.83;;;;;;;;;;5424853;26;20068;-61
2024/04/22 06:08:17;;;;;;;7.45;3.00;;;;;;;;;;5438589;26;19999;-60
2024/04/22 06:10:43;;;;;;;7.22;2.95;;;;;;;;;;5421765;26;20015;-62
2024/04/22 06:13:08;;;;;;;6.07;2.83;;;;;;;;;;5417227;26;20006;-60
2024/04/22 06:15:34;;;;;;;5.63;2.50;;;;;;;;;;5433975;26;19996;-60
2024/04/22 06:17:59;;;;;;;7.35;2.90;;;;;;;;;;5416809;26;20007;-60
2024/04/22 06:20:25;;;;;;;6.35;2.60;;;;;;;;;;5416579;26;20957;-59
2024/04/22 06:22:50;;;;;;;6.15;2.53;;;;;;;;;;5416652;26;20404;-59
2024/04/22 06:25:16;;;;;;;7.57;2.80;;;;;;;;;;5423589;26;20432;-61
2024/04/22 06:27:42;;;;;;;8.07;3.05;;;;;;;;;;5442756;26;20006;-62
2024/04/22 06:30:07;;;;;;;8.35;2.70;;;;;;;;;;5452295;26;20062;-60
2024/04/22 06:32:35;;;;;;;6.10;2.58;;;;;;;;;;5449920;26;20727;-62
2024/04/22 06:35:01;;;;;;;6.45;2.47;;;;;;;;;;5452918;26;20011;-60
2024/04/22 06:37:26;;;;;;;7.47;2.70;;;;;;;;;;5451948;26;20060;-60
2024/04/22 06:39:52;;;;;;;7.00;2.60;;;;;;;;;;5449561;26;20004;-60
2024/04/22 06:42:19;;;;;;;7.05;2.83;;;;;;;;;;5432651;26;20444;-60
2024/04/22 06:44:44;;;;;;;7.55;3.00;;;;;;;;;;5424334;26;19995;-60
2024/04/22 06:47:10;;;;;;;6.25;2.65;;;;;;;;;;5457748;26;20063;-60
2024/04/22 06:49:37;;;;;;;6.05;2.67;;;;;;;;;;5450768;26;20006;-60
2024/04/22 06:52:03;;;;;;;6.28;2.50;;;;;;;;;;5419607;26;19995;-61
2024/04/22 06:54:29;;;;;;;7.95;2.58;;;;;;;;;;5417109;26;19999;-62
2024/04/22 06:56:54;;;;;;;5.72;2.28;;;;;;;;;;5416566;26;20488;-61
2024/04/22 06:59:20;;;;;;;6.82;2.70;;;;;;;;;;5449135;26;20415;-60
2024/04/22 07:01:45;;;;;;;13.55;2.30;;;;;;;;;;5440572;26;20557;-61
2024/04/22 07:04:11;;;;;;;6.03;2.53;;;;;;;;;;5453599;26;20006;-60
2024/04/22 07:06:37;;;;;;;5.60;2.30;;;;;;;;;;5455600;26;19994;-62
2024/04/22 07:09:09;;;;;;;5.32;2.00;;;;;;;;;;5453683;26;20067;-60
2024/04/22 07:11:35;;;;;;;7.40;2.22;;;;;;;;;;5454770;26;20097;-61
2024/04/22 07:14:01;;;;;;;6.32;2.17;;;;;;;;;;5453868;26;20068;-62
2024/04/22 07:16:27;;;;;;;6.53;2.10;;;;;;;;;;5451937;26;20011;-60
2024/04/22 07:18:52;;;;;;;8.20;2.33;;;;;;;;;;5452578;26;19994;-60
2024/04/22 07:21:18;;;;;;;6.93;2.38;;;;;;;;;;5451413;26;19995;-60
2024/04/22 07:23:43;;;;;;;7.63;2.30;;;;;;;;;;5451599;26;19999;-61
2024/04/22 07:26:09;;;;;;;6.35;2.20;;;;;;;;;;5451404;26;20006;-61
2024/04/22 07:28:35;;;;;;;5.88;1.92;;;;;;;;;;5451826;26;20071;-62
2024/04/22 07:31:02;;;;;;;7.32;2.55;;;;;;;;;;5444660;26;20076;-60
2024/04/22 07:33:27;;;;;;;5.68;2.20;;;;;;;;;;5415691;26;20042;-61
2024/04/22 07:35:54;;;;;;;5.70;1.98;;;;;;;;;;5415477;26;20007;-60
2024/04/22 07:38:21;;;;;;;8.07;2.10;;;;;;;;;;5415963;26;19996;-61
2024/04/22 07:40:47;;;;;;;8.27;2.00;;;;;;;;;;5413782;26;20000;-60
2024/04/22 07:43:12;;;;;;;5.50;1.95;;;;;;;;;;5415310;26;20006;-61
2024/04/22 07:45:38;;;;;;;5.25;1.90;;;;;;;;;;5415651;26;20007;-60
2024/04/22 07:48:04;;;;;;;5.38;1.80;;;;;;;;;;5415541;26;20084;-62
2024/04/22 07:50:30;;;;;;;5.03;1.52;;;;;;;;;;5414839;26;20048;-61
2024/04/22 07:52:55;;;;;;;5.75;1.75;;;;;;;;;;5415295;26;20044;-60
2024/04/22 07:55:21;;;;;;;5.03;1.60;;;;;;;;;;5415199;26;20000;-60
2024/04/22 07:57:48;;;;;;;5.28;1.50;;;;;;;;;;5415544;26;20015;-61
2024/04/22 08:00:14;;;;;;;4.32;1.50;;;;;;;;;;5414969;26;20072;-60
2024/04/22 08:02:40;;;;;;;5.70;1.70;;;;;;;;;;5415207;26;20007;-61
2024/04/22 08:05:06;;;;;;;3.90;1.48;;;;;;;;;;5415890;26;20475;-60
2024/04/22 08:07:33;;;;;;;3.83;1.40;;;;;;;;;;5415392;26;20072;-61
2024/04/22 08:09:58;;;;;;;4.50;1.70;;;;;;;;;;5415302;26;20008;-61
2024/04/22 08:12:24;;;;;;;5.45;1.70;;;;;;;;;;5415827;26;20015;-62
2024/04/22 08:14:49;;;;;;;5.00;1.75;;;;;;;;;;5415057;26;19991;-61
2024/04/22 08:17:15;;;;;;;5.20;1.90;;;;;;;;;;5413133;26;20075;-60
2024/04/22 08:19:41;;;;;;;5.07;1.70;;;;;;;;;;5415488;26;20003;-62
2024/04/22 08:22:06;;;;;;;4.38;1.67;;;;;;;;;;5415073;26;19997;-63
2024/04/22 08:24:32;;;;;;;5.10;1.58;;;;;;;;;;5414919;26;19999;-61
2024/04/22 08:26:59;;;;;;;5.45;1.83;;;;;;;;;;5422975;26;20013;-60
2024/04/22 08:29:24;;;;;;;5.03;1.60;;;;;;;;;;5450799;26;20523;-62
2024/04/22 08:31:50;;;;;;;4.22;1.67;;;;;;;;;;5450469;26;20010;-62
2024/04/22 08:34:15;;;;;;;4.85;1.60;;;;;;;;;;5451071;26;20060;-62
2024/04/22 08:36:41;;;;;;;4.68;1.58;;;;;;;;;;5450589;26;19999;-61
2024/04/22 08:39:07;;;;;;;4.68;1.50;;;;;;;;;;5451038;26;20006;-63
2024/04/22 08:41:35;;;;;;;6.22;1.45;;;;;;;;;;5449240;26;20013;-60
2024/04/22 08:44:01;;;;;;;4.72;1.40;;;;;;;;;;5450816;26;20006;-61
2024/04/22 08:46:26;;;;;;;5.68;1.50;;;;;;;;;;5450330;26;20070;-62
2024/04/22 08:48:52;;;;;;;4.45;1.55;;;;;;;;;;5450925;26;19995;-62
2024/04/22 08:51:18;;;;;;;3.40;1.10;;;;;;;;;;5451164;26;19998;-62
2024/04/22 08:53:44;;;;;;;4.03;1.20;;;;;;;;;;5450803;26;19998;-61
2024/04/22 08:56:09;;;;;;;3.63;1.00;;;;;;;;;;5450674;26;19995;-61
2024/04/22 08:58:35;;;;;;;3.38;1.08;;;;;;;;;;5452331;26;20006;-61
2024/04/22 09:01:04;;;;;;;4.72;1.23;;;;;;;;;;5452737;26;20396;-61
2024/04/22 09:03:29;;;;;;;4.38;0.93;;;;;;;;;;5451132;26;20447;-60
2024/04/22 09:05:55;;;;;;;5.25;1.35;;;;;;;;;;5450407;26;20005;-60
2024/04/22 09:08:21;;;;;;;4.57;1.50;;;;;;;;;;5450801;26;20322;-61
2024/04/22 09:10:53;;;;;;;3.47;1.05;;;;;;;;;;5449926;26;19991;-61
2024/04/22 09:13:19;;;;;;;4.15;1.25;;;;;;;;;;5450402;26;20005;-61
2024/04/22 09:15:44;;;;;;;4.05;1.10;;;;;;;;;;5412329;26;20454;-60
2024/04/22 09:18:13;;;;;;;4.45;1.20;;;;;;;;;;5414480;26;20328;-62
2024/04/22 09:20:38;;;;;;;3.17;0.95;;;;;;;;;;5414770;26;20007;-61
2024/04/22 09:23:05;;;;;;;3.78;1.10;;;;;;;;;;5414190;26;20013;-60
2024/04/22 09:25:31;;;;;;;3.97;1.13;;;;;;;;;;5425520;26;19995;-61
2024/04/22 09:27:57;;;;;;;2.88;1.00;;;;;;;;;;5439764;26;20015;-61
2024/04/22 09:30:27;;;;;;;3.33;1.10;;;;;;;;;;5414744;26;20086;-61
2024/04/22 09:32:59;;;;;;;3.50;1.20;;;;;;;;;;5414855;26;20072;-60
2024/04/22 09:35:24;;;;;;;3.35;1.05;;;;;;;;;;5414279;26;20003;-61
2024/04/22 09:37:50;;;;;;;3.55;1.00;;;;;;;;;;5414880;26;20003;-62
2024/04/22 09:40:16;;;;;;;3.53;1.00;;;;;;;;;;5413016;26;19999;-63
2024/04/22 09:42:43;;;;;;;3.83;0.98;;;;;;;;;;5412608;26;20331;-61
2024/04/22 09:45:09;;;;;;;3.47;0.93;;;;;;;;;;5419752;26;20447;-60
2024/04/22 09:47:37;;;;;;;3.45;1.10;;;;;;;;;;5421253;26;20006;-61
2024/04/22 09:50:03;;;;;;;3.50;1.05;;;;;;;;;;5421750;26;20023;-61
2024/04/22 09:52:29;;;;;;;2.55;0.90;;;;;;;;;;5421766;26;20001;-61
2024/04/22 09:54:55;;;;;;;3.22;0.93;;;;;;;;;;5421767;26;20003;-61
2024/04/22 09:57:21;;;;;;;3.10;1.02;;;;;;;;;;5418955;26;20076;-60
2024/04/22 09:59:47;;;;;;;3.58;1.00;;;;;;;;;;5421329;26;19996;-62
2024/04/22 10:02:12;;;;;;;3.45;0.85;;;;;;;;;;5421513;26;20097;-61
2024/04/22 10:04:38;;;;;;;2.22;0.90;;;;;;;;;;5421232;26;20435;-59
2024/04/22 10:07:04;;;;;;;3.08;1.13;;;;;;;;;;5421132;26;20087;-61
2024/04/22 10:09:30;;;;;;;3.80;0.80;;;;;;;;;;5421369;26;20036;-60
2024/04/22 10:12:03;;;;;;;2.10;0.80;;;;;;;;;;5419481;26;19995;-62
2024/04/22 10:14:30;;;;;;;3.90;1.10;;;;;;;;;;5418431;26;20002;-60
2024/04/22 10:16:56;;;;;;;2.40;0.85;;;;;;;;;;5420872;26;20039;-60
2024/04/22 10:19:22;;;;;;;2.72;0.95;;;;;;;;;;5421086;26;20020;-61
2024/04/22 10:21:50;;;;;;;4.35;1.10;;;;;;;;;;5419351;26;19995;-62
2024/04/22 10:24:26;;;;;;;2.83;0.82;;;;;;;;;;5419192;26;19999;-60
2024/04/22 10:26:54;;;;;;;2.80;0.80;;;;;;;;;;5418623;26;20011;-60
2024/04/22 10:29:19;;;;;;;2.83;0.93;;;;;;;;;;5421558;26;20068;-61
2024/04/22 10:31:45;;;;;;;4.10;0.98;;;;;;;;;;5421812;26;20007;-60
2024/04/22 10:34:10;;;;;;;3.70;0.90;;;;;;;;;;5422034;26;20064;-60
2024/04/22 10:36:36;;;;;;;2.40;0.77;;;;;;;;;;5419970;26;20003;-62
2024/04/22 10:39:03;;;;;;;2.33;0.70;;;;;;;;;;5420827;26;20117;-62
2024/04/22 10:41:28;;;;;;;2.83;0.85;;;;;;;;;;5421038;26;20000;-62
2024/04/22 10:43:54;;;;;;;2.88;0.77;;;;;;;;;;5421427;26;20512;-60
2024/04/22 10:46:20;;;;;;;2.88;0.60;;;;;;;;;;5420876;26;20223;-62
2024/04/22 10:48:45;;;;;;;3.05;0.82;;;;;;;;;;5423805;26;20431;-62
2024/04/22 10:51:11;;;;;;;4.43;0.98;;;;;;;;;;5425430;26;20011;-61
2024/04/22 10:53:36;;;;;;;3.65;0.90;;;;;;;;;;5427644;26;20007;-61
2024/04/22 10:56:02;;;;;;;2.40;0.73;;;;;;;;;;5426936;26;20421;-61
2024/04/22 10:58:28;;;;;;;2.90;0.90;;;;;;;;;;5423841;26;20368;-62
2024/04/22 11:00:53;;;;;;;3.45;0.90;;;;;;;;;;5452457;26;20451;-61
2024/04/22 11:03:19;;;;;;;4.53;1.00;;;;;;;;;;5452457;26;20492;-60
2024/04/22 11:05:47;;;;;;;1.98;0.70;;;;;;;;;;5452464;26;20394;-60
2024/04/22 11:08:13;;;;;;;2.75;0.88;;;;;;;;;;5453109;26;20034;-61
2024/04/22 11:10:39;;;;;;;4.60;1.02;;;;;;;;;;5453035;26;20344;-61
2024/04/22 11:13:04;;;;;;;3.30;0.85;;;;;;;;;;5445778;26;20014;-60
2024/04/22 11:15:30;;;;;;;3.63;0.82;;;;;;;;;;5431752;26;19995;-61
2024/04/22 11:18:08;;;;;;;3.90;0.85;;;;;;;;;;5416384;26;20496;-60
2024/04/22 11:20:33;;;;;;;3.00;0.80;;;;;;;;;;5416381;26;20000;-60
2024/04/22 11:22:59;;;;;;;2.72;0.90;;;;;;;;;;5415830;26;19995;-62
2024/04/22 11:25:24;;;;;;;2.90;0.80;;;;;;;;;;5447387;26;19999;-61
2024/04/22 11:27:50;;;;;;;2.40;0.77;;;;;;;;;;5450293;26;20010;-62
2024/04/22 11:30:15;;;;;;;1.95;0.70;;;;;;;;;;5448454;26;20075;-63
2024/04/22 11:32:41;;;;;;;2.10;0.70;;;;;;;;;;5452604;26;19995;-61
2024/04/22 11:35:07;;;;;;;2.55;0.82;;;;;;;;;;5450313;26;20015;-60
2024/04/22 11:37:34;;;;;;;3.97;0.90;;;;;;;;;;5452597;26;20070;-61
2024/04/22 11:40:00;;;;;;;2.35;0.80;;;;;;;;;;5452203;26;20010;-61
2024/04/22 11:42:25;;;;;;;2.42;0.95;;;;;;;;;;5430855;26;20436;-62
2024/04/22 11:44:51;;;;;;;3.00;0.90;;;;;;;;;;5424156;26;20008;-61
2024/04/22 11:47:16;;;;;;;2.17;0.80;;;;;;;;;;5449844;26;20007;-62
2024/04/22 11:49:42;;;;;;;2.08;0.60;;;;;;;;;;5450263;26;20074;-62
2024/04/22 11:52:07;;;;;;;2.70;0.80;;;;;;;;;;5437821;26;19999;-61
2024/04/22 11:54:33;;;;;;;3.17;0.80;;;;;;;;;;5433188;26;20015;-61
2024/04/22 11:56:59;;;;;;;2.88;0.73;;;;;;;;;;5445267;26;20012;-60
2024/04/22 11:59:24;;;;;;;2.58;0.80;;;;;;;;;;5430636;26;20398;-62
2024/04/22 12:01:50;;;;;;;4.45;0.80;;;;;;;;;;5434809;26;20486;-61
2024/04/22 12:04:15;;;;;;;4.07;0.98;;;;;;;;;;5447256;26;22513;-61
2024/04/22 12:06:43;;;;;;;2.22;0.80;;;;;;;;;;5434570;26;20434;-61
2024/04/22 12:09:08;;;;;;;3.30;0.80;;;;;;;;;;5446506;26;20506;-60
2024/04/22 12:11:34;;;;;;;3.55;0.90;;;;;;;;;;5442771;26;20071;-62
2024/04/22 12:14:00;;;;;;;2.15;0.73;;;;;;;;;;5449628;26;20007;-60
2024/04/22 12:16:26;;;;;;;3.38;0.90;;;;;;;;;;5434132;26;20014;-60
2024/04/22 12:18:51;;;;;;;2.38;0.90;;;;;;;;;;5435989;26;20018;-60
2024/04/22 12:21:17;;;;;;;3.67;0.85;;;;;;;;;;5431589;26;20015;-62
2024/04/22 12:23:45;;;;;;;3.00;0.82;;;;;;;;;;5439360;26;20013;-61
2024/04/22 12:26:10;;;;;;;3.13;1.05;;;;;;;;;;5431867;26;20031;-60
2024/04/22 12:28:36;;;;;;;3.67;1.00;;;;;;;;;;5439222;26;20003;-60
2024/04/22 12:31:02;;;;;;;4.20;1.08;;;;;;;;;;5432109;26;20009;-60
2024/04/22 12:33:27;;;;;;;3.53;1.10;;;;;;;;;;5428368;26;19999;-61
2024/04/22 12:35:53;;;;;;;3.20;0.80;;;;;;;;;;5448107;26;19999;-60
2024/04/22 12:38:18;;;;;;;2.65;0.80;;;;;;;;;;5446329;26;20007;-61
2024/04/22 12:40:44;;;;;;;2.67;0.80;;;;;;;;;;5453859;26;20074;-62
2024/04/22 12:43:09;;;;;;;2.20;0.73;;;;;;;;;;5450297;26;20013;-60
2024/04/22 12:45:35;;;;;;;2.58;0.85;;;;;;;;;;5451676;26;20071;-61
2024/04/22 12:50:46;;;;;;;3.17;0.85;;;;;;;;;;5440466;26;20646;-61
2024/04/22 12:53:12;;;;;;;3.60;0.90;;;;;;;;;;5437181;26;20347;-60
2024/04/22 12:55:38;;;;;;;2.45;0.90;;;;;;;;;;5451018;26;19999;-61
2024/04/22 12:58:03;;;;;;;5.28;0.80;;;;;;;;;;5443336;26;20011;-59
2024/04/22 13:00:29;;;;;;;3.90;1.08;;;;;;;;;;5436695;26;20010;-62
2024/04/22 13:02:55;;;;;;;3.10;0.90;;;;;;;;;;5443991;26;20006;-62
2024/04/22 13:05:20;;;;;;;2.90;0.90;;;;;;;;;;5432175;26;20003;-60
2024/04/22 13:07:46;;;;;;;2.40;0.90;;;;;;;;;;5442798;26;20013;-62
2024/04/22 13:10:11;;;;;;;4.45;0.90;;;;;;;;;;5452250;26;20010;-60
2024/04/22 13:12:37;;;;;;;2.15;0.80;;;;;;;;;;5443459;26;20003;-61
2024/04/22 13:15:02;;;;;;;2.35;0.70;;;;;;;;;;5439552;26;20384;-60
2024/04/22 13:17:28;;;;;;;2.92;0.90;;;;;;;;;;5434489;26;20445;-60
2024/04/22 13:19:53;;;;;;;2.30;0.80;;;;;;;;;;5451305;26;20059;-60
2024/04/22 13:22:19;;;;;;;2.13;0.82;;;;;;;;;;5446546;26;20446;-61
2024/04/22 13:24:45;;;;;;;2.15;0.77;;;;;;;;;;5451670;26;20494;-60
2024/04/22 13:27:11;;;;;;;2.30;0.70;;;;;;;;;;5443754;26;20378;-61
2024/04/22 13:29:36;;;;;;;3.63;1.00;;;;;;;;;;5451782;26;20039;-61
2024/04/22 13:32:02;;;;;;;2.40;0.80;;;;;;;;;;5445818;26;20055;-60
2024/04/22 13:34:27;;;;;;;2.42;0.90;;;;;;;;;;5444721;26;19995;-61
2024/04/22 13:36:55;;;;;;;4.55;0.95;;;;;;;;;;5413089;26;20011;-61
2024/04/22 13:39:20;;;;;;;4.20;0.93;;;;;;;;;;5414529;26;19991;-60
2024/04/22 13:41:46;;;;;;;2.92;0.80;;;;;;;;;;5433553;26;20002;-62
2024/04/22 13:44:12;;;;;;;2.78;1.02;;;;;;;;;;5450615;26;19995;-61
2024/04/22 13:46:37;;;;;;;3.78;0.85;;;;;;;;;;5449602;26;20002;-61
2024/04/22 13:49:03;;;;;;;2.70;0.95;;;;;;;;;;5451136;26;20003;-61
2024/04/22 13:51:28;;;;;;;3.20;1.00;;;;;;;;;;5448508;26;20052;-61
2024/04/22 13:53:54;;;;;;;2.50;0.90;;;;;;;;;;5452203;26;20003;-62
2024/04/22 13:56:19;;;;;;;2.22;0.70;;;;;;;;;;5449479;26;20040;-62
2024/04/22 13:58:45;;;;;;;2.08;0.68;;;;;;;;;;5450841;26;20011;-62
2024/04/22 14:01:11;;;;;;;2.45;0.70;;;;;;;;;;5461420;26;20009;-61
2024/04/22 14:03:36;;;;;;;2.53;0.90;;;;;;;;;;5449896;26;20095;-62
2024/04/22 14:06:02;;;;;;;2.65;0.85;;;;;;;;;;5447931;26;20389;-61
2024/04/22 14:08:27;;;;;;;4.07;0.77;;;;;;;;;;5444578;26;20003;-60
2024/04/22 14:10:53;;;;;;;3.28;0.90;;;;;;;;;;5419153;26;20014;-62
2024/04/22 14:13:18;;;;;;;2.85;1.05;;;;;;;;;;5450133;26;20002;-62
2024/04/22 14:15:44;;;;;;;2.95;0.73;;;;;;;;;;5430462;26;20071;-61
2024/04/22 14:18:09;;;;;;;3.50;1.00;;;;;;;;;;5445452;26;20078;-61
2024/04/22 14:20:35;;;;;;;2.95;0.95;;;;;;;;;;5450804;26;19995;-62
2024/04/22 14:23:00;;;;;;;2.58;0.80;;;;;;;;;;5450191;26;19999;-61
2024/04/22 14:25:26;;;;;;;3.80;1.02;;;;;;;;;;5450247;26;20007;-61
2024/04/22 14:27:52;;;;;;;3.25;0.80;;;;;;;;;;5448205;26;20070;-60
2024/04/22 14:30:17;;;;;;;3.67;0.80;;;;;;;;;;5450609;26;20070;-60
2024/04/22 14:32:43;;;;;;;3.33;0.93;;;;;;;;;;5445908;26;20011;-61
2024/04/22 14:35:08;;;;;;;1.77;0.70;;;;;;;;;;5418011;26;20053;-62
2024/04/22 14:37:34;;;;;;;3.83;0.90;;;;;;;;;;5444636;26;20044;-63
2024/04/22 14:40:00;;;;;;;3.60;0.90;;;;;;;;;;5454093;26;20005;-61
2024/04/22 14:42:25;;;;;;;2.30;0.77;;;;;;;;;;5455067;26;20007;-62
2024/04/22 14:44:51;;;;;;;3.60;0.90;;;;;;;;;;5453143;26;20007;-62